sensor_id;sensor_type;location;lat;lon;timestamp;pressure;altitude;pressure_sealevel;temperature;humidity
71964;BME280;59834;52.124;5.422;2022-10-31T00:01:19;102118.16;;;11.06;100.00
71964;BME280;59834;52.124;5.422;2022-10-31T00:03:46;102121.66;;;11.07;100.00
71964;BME280;59834;52.124;5.422;2022-10-31T00:06:14;102128.72;;;11.05;100.00
71964;BME280;59834;52.124;5.422;2022-10-31T00:08:41;102120.78;;;11.06;100.00
71964;BME280;59834;52.124;5.422;2022-10-31T00:11:11;102123.34;;;11.08;99.66
71964;BME280;59834;52.124;5.422;2022-10-31T00:13:37;102126.91;;;11.07;100.00
71964;BME280;59834;52.124;5.422;2022-10-31T00:16:05;102118.16;;;11.06;99.54
71964;BME280;59834;52.124;5.422;2022-10-31T00:18:31;102123.63;;;11.02;99.65
71964;BME280;59834;52.124;5.422;2022-10-31T00:21:02;102129.84;;;10.99;99.19
71964;BME280;59834;52.124;5.422;2022-10-31T00:23:29;102137.78;;;10.98;99.25
71964;BME280;59834;52.124;5.422;2022-10-31T00:26:00;102132.75;;;10.93;99.64
71964;BME280;59834;52.124;5.422;2022-10-31T00:28:29;102139.97;;;10.88;99.22
71964;BME280;59834;52.124;5.422;2022-10-31T00:31:05;102137.41;;;10.87;99.60
71964;BME280;59834;52.124;5.422;2022-10-31T00:33:37;102138.25;;;10.87;100.00
71964;BME280;59834;52.124;5.422;2022-10-31T00:36:05;102141.84;;;10.84;99.62
71964;BME280;59834;52.124;5.422;2022-10-31T00:38:32;102141.06;;;10.82;99.93
71964;BME280;59834;52.124;5.422;2022-10-31T00:40:59;102138.56;;;10.79;99.85
71964;BME280;59834;52.124;5.422;2022-10-31T00:43:26;102141.28;;;10.78;99.64
71964;BME280;59834;52.124;5.422;2022-10-31T00:45:52;102141.19;;;10.79;100.00
71964;BME280;59834;52.124;5.422;2022-10-31T00:48:19;102139.63;;;10.75;99.91
71964;BME280;59834;52.124;5.422;2022-10-31T00:50:45;102143.09;;;10.76;99.80
71964;BME280;59834;52.124;5.422;2022-10-31T00:53:12;102133.63;;;10.73;100.00
71964;BME280;59834;52.124;5.422;2022-10-31T00:55:38;102141.63;;;10.70;99.79
71964;BME280;59834;52.124;5.422;2022-10-31T00:58:06;102144.38;;;10.67;100.00
71964;BME280;59834;52.124;5.422;2022-10-31T01:00:33;102144.50;;;10.64;99.83
71964;BME280;59834;52.124;5.422;2022-10-31T01:02:59;102140.94;;;10.65;99.98
71964;BME280;59834;52.124;5.422;2022-10-31T01:05:26;102139.91;;;10.69;99.77
71964;BME280;59834;52.124;5.422;2022-10-31T01:07:53;102142.66;;;10.66;100.00
71964;BME280;59834;52.124;5.422;2022-10-31T01:10:20;102140.22;;;10.61;100.00
71964;BME280;59834;52.124;5.422;2022-10-31T01:12:48;102134.41;;;10.55;99.78
71964;BME280;59834;52.124;5.422;2022-10-31T01:15:19;102136.22;;;10.53;100.00
71964;BME280;59834;52.124;5.422;2022-10-31T01:17:46;102131.91;;;10.52;99.79
71964;BME280;59834;52.124;5.422;2022-10-31T01:20:14;102129.44;;;10.49;99.71
71964;BME280;59834;52.124;5.422;2022-10-31T01:22:41;102138.28;;;10.46;100.00
71964;BME280;59834;52.124;5.422;2022-10-31T01:25:09;102129.56;;;10.46;100.00
71964;BME280;59834;52.124;5.422;2022-10-31T01:27:35;102124.41;;;10.44;100.00
71964;BME280;59834;52.124;5.422;2022-10-31T01:30:03;102113.97;;;10.43;100.00
71964;BME280;59834;52.124;5.422;2022-10-31T01:32:29;102105.22;;;10.44;100.00
71964;BME280;59834;52.124;5.422;2022-10-31T01:34:56;102103.59;;;10.41;100.00
71964;BME280;59834;52.124;5.422;2022-10-31T01:37:22;102114.13;;;10.40;100.00
71964;BME280;59834;52.124;5.422;2022-10-31T01:39:48;102106.41;;;10.36;100.00
71964;BME280;59834;52.124;5.422;2022-10-31T01:42:21;102116.16;;;10.33;100.00
71964;BME280;59834;52.124;5.422;2022-10-31T01:45:00;102115.56;;;10.26;100.00
71964;BME280;59834;52.124;5.422;2022-10-31T01:47:32;102117.47;;;10.21;100.00
71964;BME280;59834;52.124;5.422;2022-10-31T01:50:06;102117.69;;;10.17;100.00
71964;BME280;59834;52.124;5.422;2022-10-31T01:52:40;102108.31;;;10.11;99.94
71964;BME280;59834;52.124;5.422;2022-10-31T01:55:13;102112.09;;;10.04;99.97
71964;BME280;59834;52.124;5.422;2022-10-31T01:57:44;102111.50;;;9.97;100.00
71964;BME280;59834;52.124;5.422;2022-10-31T02:00:12;102107.22;;;9.95;100.00
71964;BME280;59834;52.124;5.422;2022-10-31T02:02:39;102110.88;;;9.90;100.00
71964;BME280;59834;52.124;5.422;2022-10-31T02:05:10;102111.72;;;9.91;100.00
71964;BME280;59834;52.124;5.422;2022-10-31T02:10:44;102109.31;;;9.86;100.00
71964;BME280;59834;52.124;5.422;2022-10-31T02:13:11;102106.81;;;9.83;100.00
71964;BME280;59834;52.124;5.422;2022-10-31T02:15:40;102103.53;;;9.78;100.00
71964;BME280;59834;52.124;5.422;2022-10-31T02:18:08;102104.56;;;9.74;100.00
71964;BME280;59834;52.124;5.422;2022-10-31T02:24:40;102108.47;;;9.64;100.00
71964;BME280;59834;52.124;5.422;2022-10-31T02:38:02;102107.53;;;9.43;100.00
71964;BME280;59834;52.124;5.422;2022-10-31T02:40:39;102115.66;;;9.35;100.00
71964;BME280;59834;52.124;5.422;2022-10-31T02:43:20;102109.75;;;9.30;100.00
71964;BME280;59834;52.124;5.422;2022-10-31T02:46:08;102108.06;;;9.29;100.00
71964;BME280;59834;52.124;5.422;2022-10-31T02:48:41;102119.50;;;9.25;100.00
71964;BME280;59834;52.124;5.422;2022-10-31T02:51:11;102117.72;;;9.27;100.00
71964;BME280;59834;52.124;5.422;2022-10-31T02:53:38;102125.66;;;9.24;100.00
71964;BME280;59834;52.124;5.422;2022-10-31T02:56:10;102117.91;;;9.23;100.00
71964;BME280;59834;52.124;5.422;2022-10-31T02:58:46;102118.97;;;9.17;100.00
71964;BME280;59834;52.124;5.422;2022-10-31T03:04:22;102110.44;;;9.12;100.00
71964;BME280;59834;52.124;5.422;2022-10-31T03:07:09;102110.44;;;9.12;100.00
71964;BME280;59834;52.124;5.422;2022-10-31T03:15:28;102112.38;;;9.07;100.00
71964;BME280;59834;52.124;5.422;2022-10-31T03:18:03;102112.38;;;9.07;100.00
71964;BME280;59834;52.124;5.422;2022-10-31T03:20:45;102123.66;;;9.07;100.00
71964;BME280;59834;52.124;5.422;2022-10-31T03:23:16;102122.00;;;9.05;100.00
71964;BME280;59834;52.124;5.422;2022-10-31T03:25:45;102120.44;;;9.01;100.00
71964;BME280;59834;52.124;5.422;2022-10-31T03:28:14;102122.22;;;8.98;100.00
71964;BME280;59834;52.124;5.422;2022-10-31T03:30:44;102121.47;;;8.96;100.00
71964;BME280;59834;52.124;5.422;2022-10-31T03:33:15;102128.59;;;8.91;99.96
71964;BME280;59834;52.124;5.422;2022-10-31T03:35:46;102120.88;;;8.88;100.00
71964;BME280;59834;52.124;5.422;2022-10-31T03:38:14;102120.09;;;8.86;100.00
71964;BME280;59834;52.124;5.422;2022-10-31T03:40:43;102123.66;;;8.84;99.91
71964;BME280;59834;52.124;5.422;2022-10-31T03:43:17;102120.22;;;8.82;99.80
71964;BME280;59834;52.124;5.422;2022-10-31T03:45:46;102119.44;;;8.80;100.00
71964;BME280;59834;52.124;5.422;2022-10-31T03:48:16;102124.78;;;8.77;100.00
71964;BME280;59834;52.124;5.422;2022-10-31T03:53:26;102123.19;;;8.72;100.00
71964;BME280;59834;52.124;5.422;2022-10-31T03:56:01;102123.28;;;8.69;100.00
71964;BME280;59834;52.124;5.422;2022-10-31T03:58:38;102120.81;;;8.65;100.00
71964;BME280;59834;52.124;5.422;2022-10-31T04:01:09;102119.22;;;8.61;100.00
71964;BME280;59834;52.124;5.422;2022-10-31T04:03:39;102118.50;;;8.57;100.00
71964;BME280;59834;52.124;5.422;2022-10-31T04:06:08;102118.56;;;8.56;100.00
71964;BME280;59834;52.124;5.422;2022-10-31T04:08:41;102118.56;;;8.56;100.00
71964;BME280;59834;52.124;5.422;2022-10-31T04:11:11;102115.97;;;8.54;99.95
71964;BME280;59834;52.124;5.422;2022-10-31T04:13:40;102119.50;;;8.53;100.00
71964;BME280;59834;52.124;5.422;2022-10-31T04:16:08;102127.38;;;8.52;100.00
71964;BME280;59834;52.124;5.422;2022-10-31T04:18:41;102124.84;;;8.50;100.00
71964;BME280;59834;52.124;5.422;2022-10-31T04:21:08;102131.81;;;8.49;100.00
71964;BME280;59834;52.124;5.422;2022-10-31T04:23:35;102128.38;;;8.47;100.00
71964;BME280;59834;52.124;5.422;2022-10-31T04:26:02;102128.59;;;8.41;100.00
71964;BME280;59834;52.124;5.422;2022-10-31T04:28:29;102123.44;;;8.40;100.00
71964;BME280;59834;52.124;5.422;2022-10-31T04:30:55;102120.03;;;8.38;100.00
71964;BME280;59834;52.124;5.422;2022-10-31T04:33:22;102127.06;;;8.34;100.00
71964;BME280;59834;52.124;5.422;2022-10-31T04:35:49;102119.34;;;8.31;100.00
71964;BME280;59834;52.124;5.422;2022-10-31T04:38:15;102127.97;;;8.33;99.77
71964;BME280;59834;52.124;5.422;2022-10-31T04:40:42;102122.81;;;8.32;100.00
71964;BME280;59834;52.124;5.422;2022-10-31T04:43:08;102123.81;;;8.27;100.00
71964;BME280;59834;52.124;5.422;2022-10-31T04:45:35;102116.16;;;8.23;100.00
71964;BME280;59834;52.124;5.422;2022-10-31T04:48:02;102117.94;;;8.21;100.00
71964;BME280;59834;52.124;5.422;2022-10-31T04:50:29;102119.78;;;8.19;100.00
71964;BME280;59834;52.124;5.422;2022-10-31T04:52:55;102116.31;;;8.18;100.00
71964;BME280;59834;52.124;5.422;2022-10-31T04:55:22;102112.91;;;8.15;100.00
71964;BME280;59834;52.124;5.422;2022-10-31T04:57:49;102119.06;;;8.14;100.00
71964;BME280;59834;52.124;5.422;2022-10-31T05:00:19;102111.38;;;8.09;100.00
71964;BME280;59834;52.124;5.422;2022-10-31T05:02:47;102113.94;;;8.11;100.00
71964;BME280;59834;52.124;5.422;2022-10-31T05:05:16;102107.84;;;8.12;100.00
71964;BME280;59834;52.124;5.422;2022-10-31T05:07:44;102115.53;;;8.15;100.00
71964;BME280;59834;52.124;5.422;2022-10-31T05:10:16;102107.72;;;8.15;100.00
71964;BME280;59834;52.124;5.422;2022-10-31T05:12:49;102105.09;;;8.15;100.00
71964;BME280;59834;52.124;5.422;2022-10-31T05:15:17;102111.22;;;8.14;100.00
71964;BME280;59834;52.124;5.422;2022-10-31T05:17:44;102106.06;;;8.12;100.00
71964;BME280;59834;52.124;5.422;2022-10-31T05:20:12;102111.28;;;8.12;100.00
71964;BME280;59834;52.124;5.422;2022-10-31T05:22:47;102110.47;;;8.10;100.00
71964;BME280;59834;52.124;5.422;2022-10-31T05:25:15;102102.66;;;8.10;100.00
71964;BME280;59834;52.124;5.422;2022-10-31T05:27:43;102098.34;;;8.09;100.00
71964;BME280;59834;52.124;5.422;2022-10-31T05:30:12;102103.59;;;8.08;100.00
71964;BME280;59834;52.124;5.422;2022-10-31T05:32:47;102105.34;;;8.07;100.00
71964;BME280;59834;52.124;5.422;2022-10-31T05:35:20;102106.31;;;8.04;100.00
71964;BME280;59834;52.124;5.422;2022-10-31T05:37:47;102098.59;;;8.01;100.00
71964;BME280;59834;52.124;5.422;2022-10-31T05:40:16;102093.50;;;7.98;100.00
71964;BME280;59834;52.124;5.422;2022-10-31T05:42:43;102097.97;;;7.95;100.00
71964;BME280;59834;52.124;5.422;2022-10-31T05:45:13;102098.06;;;7.92;100.00
71964;BME280;59834;52.124;5.422;2022-10-31T05:47:41;102097.19;;;7.91;100.00
71964;BME280;59834;52.124;5.422;2022-10-31T05:50:09;102097.31;;;7.88;100.00
71964;BME280;59834;52.124;5.422;2022-10-31T05:52:36;102096.50;;;7.86;100.00
71964;BME280;59834;52.124;5.422;2022-10-31T05:55:03;102084.38;;;7.85;100.00
71964;BME280;59834;52.124;5.422;2022-10-31T05:57:31;102092.97;;;7.87;100.00
71964;BME280;59834;52.124;5.422;2022-10-31T05:59:58;102082.44;;;7.90;100.00
71964;BME280;59834;52.124;5.422;2022-10-31T06:02:25;102083.34;;;7.89;100.00
71964;BME280;59834;52.124;5.422;2022-10-31T06:04:53;102080.69;;;7.91;100.00
71964;BME280;59834;52.124;5.422;2022-10-31T06:07:19;102084.03;;;7.94;100.00
71964;BME280;59834;52.124;5.422;2022-10-31T06:09:46;102079.66;;;7.96;100.00
71964;BME280;59834;52.124;5.422;2022-10-31T06:12:12;102081.41;;;7.96;100.00
71964;BME280;59834;52.124;5.422;2022-10-31T06:14:39;102076.22;;;7.94;100.00
71964;BME280;59834;52.124;5.422;2022-10-31T06:17:05;102078.94;;;7.91;100.00
71964;BME280;59834;52.124;5.422;2022-10-31T06:19:32;102079.06;;;7.88;100.00
71964;BME280;59834;52.124;5.422;2022-10-31T06:21:58;102087.06;;;7.82;100.00
71964;BME280;59834;52.124;5.422;2022-10-31T06:24:25;102078.50;;;7.78;100.00
71964;BME280;59834;52.124;5.422;2022-10-31T06:26:51;102078.63;;;7.74;100.00
71964;BME280;59834;52.124;5.422;2022-10-31T06:29:18;102079.47;;;7.74;100.00
71964;BME280;59834;52.124;5.422;2022-10-31T06:31:44;102081.22;;;7.74;100.00
71964;BME280;59834;52.124;5.422;2022-10-31T06:34:11;102083.84;;;7.74;100.00
71964;BME280;59834;52.124;5.422;2022-10-31T06:36:37;102083.75;;;7.77;100.00
71964;BME280;59834;52.124;5.422;2022-10-31T06:39:04;102081.00;;;7.82;100.00
71964;BME280;59834;52.124;5.422;2022-10-31T06:41:31;102084.41;;;7.84;100.00
71964;BME280;59834;52.124;5.422;2022-10-31T06:43:58;102093.88;;;7.86;100.00
71964;BME280;59834;52.124;5.422;2022-10-31T06:46:29;102095.47;;;7.90;100.00
71964;BME280;59834;52.124;5.422;2022-10-31T06:48:56;102093.69;;;7.92;100.00
71964;BME280;59834;52.124;5.422;2022-10-31T06:51:22;102097.97;;;7.95;100.00
71964;BME280;59834;52.124;5.422;2022-10-31T06:53:49;102098.72;;;7.98;100.00
71964;BME280;59834;52.124;5.422;2022-10-31T06:56:15;102096.78;;;8.03;100.00
71964;BME280;59834;52.124;5.422;2022-10-31T06:58:42;102106.28;;;8.06;100.00
71964;BME280;59834;52.124;5.422;2022-10-31T07:01:08;102109.56;;;8.11;100.00
71964;BME280;59834;52.124;5.422;2022-10-31T07:03:35;102102.47;;;8.16;100.00
71964;BME280;59834;52.124;5.422;2022-10-31T07:06:02;102099.69;;;8.21;100.00
71964;BME280;59834;52.124;5.422;2022-10-31T07:08:28;102100.53;;;8.21;100.00
71964;BME280;59834;52.124;5.422;2022-10-31T07:10:56;102098.69;;;8.25;100.00
71964;BME280;59834;52.124;5.422;2022-10-31T07:13:23;102109.81;;;8.30;100.00
71964;BME280;59834;52.124;5.422;2022-10-31T07:15:54;102101.75;;;8.38;100.00
71964;BME280;59834;52.124;5.422;2022-10-31T07:18:22;102103.38;;;8.42;100.00
71964;BME280;59834;52.124;5.422;2022-10-31T07:20:48;102094.63;;;8.43;100.00
71964;BME280;59834;52.124;5.422;2022-10-31T07:23:15;102094.56;;;8.44;100.00
71964;BME280;59834;52.124;5.422;2022-10-31T07:25:41;102096.28;;;8.45;100.00
71964;BME280;59834;52.124;5.422;2022-10-31T07:28:08;102092.69;;;8.48;100.00
71964;BME280;59834;52.124;5.422;2022-10-31T07:30:35;102095.28;;;8.49;100.00
71964;BME280;59834;52.124;5.422;2022-10-31T07:33:02;102106.47;;;8.53;100.00
71964;BME280;59834;52.124;5.422;2022-10-31T07:35:30;102108.06;;;8.57;100.00
71964;BME280;59834;52.124;5.422;2022-10-31T07:37:57;102105.31;;;8.62;100.00
71964;BME280;59834;52.124;5.422;2022-10-31T07:40:25;102114.81;;;8.63;100.00
71964;BME280;59834;52.124;5.422;2022-10-31T07:42:52;102112.13;;;8.66;100.00
71964;BME280;59834;52.124;5.422;2022-10-31T07:45:20;102113.69;;;8.70;100.00
71964;BME280;59834;52.124;5.422;2022-10-31T07:47:49;102114.34;;;8.77;100.00
71964;BME280;59834;52.124;5.422;2022-10-31T07:50:19;102114.13;;;8.83;100.00
71964;BME280;59834;52.124;5.422;2022-10-31T07:52:46;102121.00;;;8.85;100.00
71964;BME280;59834;52.124;5.422;2022-10-31T07:55:13;102119.28;;;8.84;100.00
71964;BME280;59834;52.124;5.422;2022-10-31T07:57:40;102109.44;;;8.92;100.00
71964;BME280;59834;52.124;5.422;2022-10-31T08:00:08;102111.69;;;9.02;100.00
71964;BME280;59834;52.124;5.422;2022-10-31T08:02:35;102110.78;;;9.03;100.00
71964;BME280;59834;52.124;5.422;2022-10-31T08:05:02;102121.25;;;9.03;100.00
71964;BME280;59834;52.124;5.422;2022-10-31T08:07:29;102121.13;;;9.06;100.00
71964;BME280;59834;52.124;5.422;2022-10-31T08:09:56;102120.88;;;9.12;100.00
71964;BME280;59834;52.124;5.422;2022-10-31T08:12:24;102120.63;;;9.19;100.00
71964;BME280;59834;52.124;5.422;2022-10-31T08:14:50;102126.25;;;9.32;100.00
71964;BME280;59834;52.124;5.422;2022-10-31T08:17:17;102126.56;;;9.47;100.00
71964;BME280;59834;52.124;5.422;2022-10-31T08:19:43;102126.25;;;9.54;100.00
71964;BME280;59834;52.124;5.422;2022-10-31T08:22:10;102125.28;;;9.57;100.00
71964;BME280;59834;52.124;5.422;2022-10-31T08:24:37;102126.63;;;9.67;100.00
71964;BME280;59834;52.124;5.422;2022-10-31T08:27:09;102134.66;;;9.84;100.00
71964;BME280;59834;52.124;5.422;2022-10-31T08:29:35;102127.00;;;10.02;100.00
71964;BME280;59834;52.124;5.422;2022-10-31T08:32:02;102123.03;;;10.13;100.00
71964;BME280;59834;52.124;5.422;2022-10-31T08:34:30;102121.16;;;10.17;100.00
71964;BME280;59834;52.124;5.422;2022-10-31T08:36:57;102119.03;;;10.25;100.00
71964;BME280;59834;52.124;5.422;2022-10-31T08:39:24;102115.50;;;10.28;100.00
71964;BME280;59834;52.124;5.422;2022-10-31T08:41:52;102113.81;;;10.25;100.00
71964;BME280;59834;52.124;5.422;2022-10-31T08:44:18;102119.88;;;10.27;100.00
71964;BME280;59834;52.124;5.422;2022-10-31T08:46:45;102111.19;;;10.25;100.00
71964;BME280;59834;52.124;5.422;2022-10-31T08:49:12;102112.94;;;10.26;100.00
71964;BME280;59834;52.124;5.422;2022-10-31T08:51:38;102111.09;;;10.28;100.00
71964;BME280;59834;52.124;5.422;2022-10-31T08:54:05;102110.97;;;10.31;100.00
71964;BME280;59834;52.124;5.422;2022-10-31T08:56:31;102098.47;;;10.38;100.00
71964;BME280;59834;52.124;5.422;2022-10-31T08:58:58;102092.91;;;10.46;100.00
71964;BME280;59834;52.124;5.422;2022-10-31T09:01:25;102091.09;;;10.48;100.00
71964;BME280;59834;52.124;5.422;2022-10-31T09:03:51;102099.75;;;10.50;100.00
71964;BME280;59834;52.124;5.422;2022-10-31T09:06:18;102095.94;;;10.57;100.00
71964;BME280;59834;52.124;5.422;2022-10-31T09:08:45;102088.66;;;10.64;100.00
71964;BME280;59834;52.124;5.422;2022-10-31T09:11:12;102087.25;;;10.75;100.00
71964;BME280;59834;52.124;5.422;2022-10-31T09:13:39;102083.97;;;10.91;100.00
71964;BME280;59834;52.124;5.422;2022-10-31T09:16:07;102079.59;;;11.10;100.00
71964;BME280;59834;52.124;5.422;2022-10-31T09:18:33;102070.16;;;11.25;100.00
71964;BME280;59834;52.124;5.422;2022-10-31T09:21:00;102066.97;;;11.37;100.00
71964;BME280;59834;52.124;5.422;2022-10-31T09:23:27;102066.47;;;11.48;100.00
71964;BME280;59834;52.124;5.422;2022-10-31T09:25:55;102061.78;;;11.54;100.00
71964;BME280;59834;52.124;5.422;2022-10-31T09:28:23;102049.28;;;11.60;100.00
71964;BME280;59834;52.124;5.422;2022-10-31T09:30:52;102048.94;;;11.67;100.00
71964;BME280;59834;52.124;5.422;2022-10-31T09:33:19;102044.22;;;11.74;100.00
71964;BME280;59834;52.124;5.422;2022-10-31T09:35:47;102042.06;;;11.82;100.00
71964;BME280;59834;52.124;5.422;2022-10-31T09:38:19;102032.06;;;11.90;100.00
71964;BME280;59834;52.124;5.422;2022-10-31T09:41:04;102034.09;;;12.02;100.00
71964;BME280;59834;52.124;5.422;2022-10-31T09:52:03;102039.28;;;12.55;100.00
71964;BME280;59834;52.124;5.422;2022-10-31T09:54:41;102042.34;;;12.63;100.00
71964;BME280;59834;52.124;5.422;2022-10-31T09:57:16;102040.06;;;12.72;100.00
71964;BME280;59834;52.124;5.422;2022-10-31T09:59:46;102030.94;;;12.80;100.00
71964;BME280;59834;52.124;5.422;2022-10-31T10:02:29;102028.50;;;12.92;100.00
71964;BME280;59834;52.124;5.422;2022-10-31T10:04:59;102035.56;;;13.08;100.00
71964;BME280;59834;52.124;5.422;2022-10-31T10:10:17;102024.72;;;13.30;100.00
71964;BME280;59834;52.124;5.422;2022-10-31T10:15:33;102019.94;;;13.52;100.00
71964;BME280;59834;52.124;5.422;2022-10-31T10:26:18;102019.00;;;13.53;98.82
71964;BME280;59834;52.124;5.422;2022-10-31T10:28:50;102011.13;;;13.53;99.04
71964;BME280;59834;52.124;5.422;2022-10-31T10:31:25;102012.78;;;13.54;98.43
71964;BME280;59834;52.124;5.422;2022-10-31T10:34:02;101989.22;;;13.53;98.91
71964;BME280;59834;52.124;5.422;2022-10-31T10:36:40;101997.78;;;13.56;98.82
71964;BME280;59834;52.124;5.422;2022-10-31T10:39:16;101998.34;;;13.61;99.06
71964;BME280;59834;52.124;5.422;2022-10-31T10:41:47;101994.69;;;13.64;99.08
71964;BME280;59834;52.124;5.422;2022-10-31T10:44:39;101987.47;;;13.67;98.03
71964;BME280;59834;52.124;5.422;2022-10-31T10:47:26;101982.63;;;13.76;98.25
71964;BME280;59834;52.124;5.422;2022-10-31T10:50:12;101969.28;;;13.79;97.30
71964;BME280;59834;52.124;5.422;2022-10-31T10:55:33;101945.28;;;13.99;97.09
71964;BME280;59834;52.124;5.422;2022-10-31T10:58:06;101944.72;;;14.08;96.62
71964;BME280;59834;52.124;5.422;2022-10-31T11:00:46;101945.84;;;14.19;95.81
71964;BME280;59834;52.124;5.422;2022-10-31T11:03:14;101939.16;;;14.27;94.98
71964;BME280;59834;52.124;5.422;2022-10-31T11:05:43;101925.72;;;14.32;94.13
71964;BME280;59834;52.124;5.422;2022-10-31T11:11:02;101899.09;;;14.36;93.96
71964;BME280;59834;52.124;5.422;2022-10-31T11:13:30;101887.13;;;14.31;93.57
71964;BME280;59834;52.124;5.422;2022-10-31T11:16:05;101887.97;;;14.31;93.56
71964;BME280;59834;52.124;5.422;2022-10-31T11:18:34;101890.16;;;14.39;94.06
71964;BME280;59834;52.124;5.422;2022-10-31T11:21:03;101894.09;;;14.46;94.04
71964;BME280;59834;52.124;5.422;2022-10-31T11:23:32;101895.22;;;14.56;93.12
71964;BME280;59834;52.124;5.422;2022-10-31T11:26:01;101902.44;;;14.67;93.01
71964;BME280;59834;52.124;5.422;2022-10-31T11:28:30;101893.31;;;14.73;92.39
71964;BME280;59834;52.124;5.422;2022-10-31T11:30:59;101898.59;;;14.73;92.38
71964;BME280;59834;52.124;5.422;2022-10-31T11:33:34;101896.16;;;14.70;91.72
71964;BME280;59834;52.124;5.422;2022-10-31T11:36:13;101878.09;;;14.64;92.18
71964;BME280;59834;52.124;5.422;2022-10-31T11:38:43;101882.41;;;14.65;93.11
71964;BME280;59834;52.124;5.422;2022-10-31T11:43:37;101871.66;;;14.68;92.50
71964;BME280;59834;52.124;5.422;2022-10-31T11:46:13;101876.75;;;14.71;92.18
71964;BME280;59834;52.124;5.422;2022-10-31T11:48:47;101874.47;;;14.79;91.89
71964;BME280;59834;52.124;5.422;2022-10-31T11:51:20;101864.84;;;14.78;91.35
71964;BME280;59834;52.124;5.422;2022-10-31T11:53:52;101865.81;;;14.77;91.28
71964;BME280;59834;52.124;5.422;2022-10-31T11:56:27;101843.78;;;14.78;91.41
71964;BME280;59834;52.124;5.422;2022-10-31T11:59:02;101828.59;;;14.81;91.32
71964;BME280;59834;52.124;5.422;2022-10-31T12:01:31;101818.06;;;14.81;91.62
71964;BME280;59834;52.124;5.422;2022-10-31T12:06:34;101805.19;;;14.77;91.58
71964;BME280;59834;52.124;5.422;2022-10-31T12:09:33;101802.88;;;14.72;91.88
71964;BME280;59834;52.124;5.422;2022-10-31T12:12:16;101797.16;;;14.66;92.01
71964;BME280;59834;52.124;5.422;2022-10-31T12:29:19;101764.03;;;14.61;92.73
71964;BME280;59834;52.124;5.422;2022-10-31T12:35:05;101743.22;;;14.84;92.28
71964;BME280;59834;52.124;5.422;2022-10-31T12:46:16;101733.97;;;15.04;90.88
71964;BME280;59834;52.124;5.422;2022-10-31T12:49:39;101712.69;;;15.07;90.66
71964;BME280;59834;52.124;5.422;2022-10-31T12:52:04;101708.03;;;15.11;90.57
71964;BME280;59834;52.124;5.422;2022-10-31T12:59:49;101702.13;;;15.20;90.18
71964;BME280;59834;52.124;5.422;2022-10-31T13:02:44;101699.16;;;15.24;90.05
71964;BME280;59834;52.124;5.422;2022-10-31T13:05:30;101700.00;;;15.25;90.31
71964;BME280;59834;52.124;5.422;2022-10-31T13:08:09;101692.22;;;15.23;89.66
71964;BME280;59834;52.124;5.422;2022-10-31T13:10:41;101692.22;;;15.23;89.55
71964;BME280;59834;52.124;5.422;2022-10-31T13:13:19;101686.81;;;15.25;89.66
71964;BME280;59834;52.124;5.422;2022-10-31T13:15:51;101688.63;;;15.24;90.01
71964;BME280;59834;52.124;5.422;2022-10-31T13:18:50;101666.69;;;15.24;90.40
71964;BME280;59834;52.124;5.422;2022-10-31T13:21:42;101647.47;;;15.22;90.56
71964;BME280;59834;52.124;5.422;2022-10-31T13:24:17;101644.13;;;15.20;90.82
71964;BME280;59834;52.124;5.422;2022-10-31T13:26:52;101638.09;;;15.18;90.83
71964;BME280;59834;52.124;5.422;2022-10-31T13:29:24;101636.28;;;15.18;91.71
71964;BME280;59834;52.124;5.422;2022-10-31T13:31:57;101639.06;;;15.17;91.56
71964;BME280;59834;52.124;5.422;2022-10-31T13:34:46;101638.84;;;15.20;91.48
71964;BME280;59834;52.124;5.422;2022-10-31T13:40:04;101623.00;;;15.32;91.80
71964;BME280;59834;52.124;5.422;2022-10-31T13:42:53;101613.47;;;15.43;91.83
71964;BME280;59834;52.124;5.422;2022-10-31T13:45:24;101601.41;;;15.51;91.12
71964;BME280;59834;52.124;5.422;2022-10-31T13:48:18;101600.13;;;15.57;90.74
71964;BME280;59834;52.124;5.422;2022-10-31T13:51:00;101589.13;;;15.63;90.33
71964;BME280;59834;52.124;5.422;2022-10-31T13:58:35;101584.28;;;15.70;90.40
71964;BME280;59834;52.124;5.422;2022-10-31T14:01:21;101581.75;;;15.68;90.32
71964;BME280;59834;52.124;5.422;2022-10-31T14:04:16;101577.41;;;15.67;89.94
71964;BME280;59834;52.124;5.422;2022-10-31T14:06:57;101573.19;;;15.65;89.83
71964;BME280;59834;52.124;5.422;2022-10-31T14:09:37;101572.47;;;15.63;89.66
71964;BME280;59834;52.124;5.422;2022-10-31T14:12:08;101566.44;;;15.61;89.77
71964;BME280;59834;52.124;5.422;2022-10-31T14:14:44;101566.66;;;15.57;89.22
71964;BME280;59834;52.124;5.422;2022-10-31T14:17:18;101565.91;;;15.55;89.82
71964;BME280;59834;52.124;5.422;2022-10-31T14:22:33;101548.84;;;15.48;90.29
71964;BME280;59834;52.124;5.422;2022-10-31T14:27:52;101538.75;;;15.42;90.21
71964;BME280;59834;52.124;5.422;2022-10-31T14:30:21;101539.00;;;15.39;90.93
71964;BME280;59834;52.124;5.422;2022-10-31T14:33:16;101524.31;;;15.35;90.56
71964;BME280;59834;52.124;5.422;2022-10-31T14:38:53;101520.22;;;15.31;90.68
71964;BME280;59834;52.124;5.422;2022-10-31T14:41:33;101510.66;;;15.30;90.72
71964;BME280;59834;52.124;5.422;2022-10-31T14:46:50;101504.63;;;15.28;91.19
71964;BME280;59834;52.124;5.422;2022-10-31T14:51:59;101491.88;;;15.22;91.34
71964;BME280;59834;52.124;5.422;2022-10-31T14:54:34;101493.81;;;15.20;91.62
71964;BME280;59834;52.124;5.422;2022-10-31T14:57:05;101496.44;;;15.20;91.64
71964;BME280;59834;52.124;5.422;2022-10-31T14:59:36;101490.56;;;15.16;91.99
71964;BME280;59834;52.124;5.422;2022-10-31T15:02:17;101499.53;;;15.14;91.95